Time;durP1;ratioP1;P1;durP2;ratioP2;P2;SDS_P1;SDS_P2;PMS_P1;PMS_P2;Temp;Humidity;BMP_temperature;BMP_pressure;BME280_temperature;BME280_humidity;BME280_pressure;Samples;Min_cycle;Max_cycle;Signal;HPM_P1;HPM_P2
2023/12/15 00:00:21;;;;;;;36.95;20.02;;;;;;;-143.54;100.00;59916.91;5083591;28;20040;-83
2023/12/15 00:02:47;;;;;;;36.70;19.70;;;;;;;-143.54;100.00;59916.91;5091362;28;20032;-83
2023/12/15 00:05:12;;;;;;;39.83;20.75;;;;;;;-143.54;100.00;59916.91;5091791;28;20103;-84
2023/12/15 00:07:38;;;;;;;41.28;20.52;;;;;;;-143.54;100.00;59916.91;5091855;28;20119;-83
2023/12/15 00:10:04;;;;;;;37.97;21.27;;;;;;;-143.54;100.00;59916.91;5090195;28;20024;-83
2023/12/15 00:12:29;;;;;;;38.03;21.27;;;;;;;-143.54;100.00;59916.91;5100019;28;20028;-83
2023/12/15 00:14:55;;;;;;;41.83;21.90;;;;;;;-143.54;100.00;59916.91;5096452;28;20024;-81
2023/12/15 00:17:20;;;;;;;37.50;21.63;;;;;;;-143.54;100.00;59916.91;5098201;28;20094;-81
2023/12/15 00:19:45;;;;;;;41.90;21.98;;;;;;;-143.54;100.00;59916.91;5103229;28;20032;-81
2023/12/15 00:22:11;;;;;;;43.63;22.00;;;;;;;-143.54;100.00;59916.91;5099453;28;20105;-81
2023/12/15 00:24:36;;;;;;;42.63;22.50;;;;;;;-143.54;100.00;59916.91;5110214;28;20034;-82
2023/12/15 00:27:02;;;;;;;42.15;23.17;;;;;;;-143.54;100.00;59916.91;5101827;28;20428;-81
2023/12/15 00:29:27;;;;;;;46.75;23.98;;;;;;;-143.54;100.00;59916.91;5091930;28;20024;-82
2023/12/15 00:31:52;;;;;;;47.03;22.85;;;;;;;-143.54;100.00;59916.91;5094719;28;20052;-82
2023/12/15 00:34:18;;;;;;;48.25;23.30;;;;;;;-143.54;100.00;59916.91;5093868;28;20371;-82
2023/12/15 00:36:43;;;;;;;44.22;22.75;;;;;;;-143.54;100.00;59916.91;5102694;28;20035;-82
2023/12/15 00:39:09;;;;;;;51.90;24.50;;;;;;;-143.54;100.00;59916.91;5096310;28;20051;-82
2023/12/15 00:41:34;;;;;;;46.53;23.25;;;;;;;-143.54;100.00;59916.91;5093120;28;20036;-81
2023/12/15 00:44:02;;;;;;;46.20;22.83;;;;;;;-143.54;100.00;59916.91;5094193;28;20080;-82
2023/12/15 00:46:27;;;;;;;53.40;25.40;;;;;;;-143.54;100.00;59916.91;5101502;28;20020;-82
2023/12/15 00:48:52;;;;;;;48.30;24.23;;;;;;;-143.54;100.00;59916.91;5094680;28;20028;-82
2023/12/15 00:51:18;;;;;;;55.20;24.85;;;;;;;-143.54;100.00;59916.91;5094016;28;20028;-81
2023/12/15 00:53:43;;;;;;;51.78;24.83;;;;;;;-143.54;100.00;59916.91;5094404;28;20040;-82
2023/12/15 00:56:09;;;;;;;53.38;25.40;;;;;;;-143.54;100.00;59916.91;5090905;28;20028;-82
2023/12/15 00:58:35;;;;;;;54.25;25.33;;;;;;;-143.54;100.00;59916.91;5089723;28;20046;-82
2023/12/15 01:01:00;;;;;;;49.55;25.10;;;;;;;-143.54;100.00;59916.91;5094368;28;20047;-82
2023/12/15 01:03:25;;;;;;;56.30;25.80;;;;;;;-143.54;100.00;59916.91;5094780;28;20027;-82
2023/12/15 01:05:51;;;;;;;52.50;23.75;;;;;;;-143.54;100.00;59916.91;5094167;28;20511;-81
2023/12/15 01:08:16;;;;;;;54.40;24.45;;;;;;;-143.54;100.00;59916.91;5094161;28;20032;-82
2023/12/15 01:10:42;;;;;;;50.10;24.33;;;;;;;-143.54;100.00;59916.91;5094879;28;20039;-82
2023/12/15 01:13:07;;;;;;;51.25;24.58;;;;;;;-143.54;100.00;59916.91;5085041;28;20024;-82
2023/12/15 01:15:32;;;;;;;50.60;24.85;;;;;;;-143.54;100.00;59916.91;5094562;28;20119;-81
2023/12/15 01:17:58;;;;;;;49.88;24.85;;;;;;;-143.54;100.00;59916.91;5093746;28;20042;-82
2023/12/15 01:20:23;;;;;;;47.60;24.05;;;;;;;-143.54;100.00;59916.91;5097566;28;20032;-81
2023/12/15 01:22:48;;;;;;;49.10;24.63;;;;;;;-143.54;100.00;59916.91;5102815;28;20059;-82
2023/12/15 01:25:14;;;;;;;49.13;24.17;;;;;;;-143.54;100.00;59916.91;5095236;28;20036;-81
2023/12/15 01:27:39;;;;;;;51.53;24.85;;;;;;;-143.54;100.00;59916.91;5102655;28;20027;-82
2023/12/15 01:30:06;;;;;;;47.42;23.95;;;;;;;-143.54;100.00;59916.91;5097919;28;20100;-82
2023/12/15 01:32:31;;;;;;;49.70;24.38;;;;;;;-143.54;100.00;59916.91;5097679;28;20631;-82
2023/12/15 01:34:56;;;;;;;48.10;24.15;;;;;;;-143.54;100.00;59916.91;5101061;28;20028;-82
2023/12/15 01:37:22;;;;;;;57.20;25.60;;;;;;;-143.54;100.00;59916.91;5106222;28;20032;-82
2023/12/15 01:39:47;;;;;;;45.88;23.73;;;;;;;-143.54;100.00;59916.91;5098284;28;20085;-83
2023/12/15 01:42:12;;;;;;;46.25;23.52;;;;;;;-143.54;100.00;59916.91;5090183;28;20028;-82
2023/12/15 01:44:39;;;;;;;44.03;23.00;;;;;;;-143.54;100.00;59916.91;5094668;28;20070;-82
2023/12/15 01:47:04;;;;;;;47.90;23.58;;;;;;;-143.54;100.00;59916.91;5094227;28;20035;-82
2023/12/15 01:49:29;;;;;;;45.88;23.50;;;;;;;-143.54;100.00;59916.91;5094198;28;20024;-82
2023/12/15 01:51:55;;;;;;;49.80;23.08;;;;;;;-143.54;100.00;59916.91;5103868;28;20028;-82
2023/12/15 01:54:20;;;;;;;51.70;23.27;;;;;;;-143.54;100.00;59916.91;5096463;28;20062;-82
2023/12/15 01:56:46;;;;;;;49.33;24.10;;;;;;;-143.54;100.00;59916.91;5093264;28;20399;-82
2023/12/15 01:59:11;;;;;;;47.78;23.05;;;;;;;-143.54;100.00;59916.91;5093898;28;20528;-82
2023/12/15 02:01:37;;;;;;;47.65;23.33;;;;;;;-143.54;100.00;59916.91;5092956;28;20028;-82
2023/12/15 02:04:02;;;;;;;48.15;23.05;;;;;;;-143.54;100.00;59916.91;5093306;28;20112;-82
2023/12/15 02:06:27;;;;;;;49.05;22.77;;;;;;;-143.54;100.00;59916.91;5086081;28;20032;-82
2023/12/15 02:08:53;;;;;;;51.58;23.05;;;;;;;-143.54;100.00;59916.91;5098596;28;20035;-82
2023/12/15 02:11:18;;;;;;;47.75;23.15;;;;;;;-143.54;100.00;59916.91;5099595;28;20020;-82
2023/12/15 02:13:43;;;;;;;44.97;22.20;;;;;;;-143.54;100.00;59916.91;5097411;28;20580;-82
2023/12/15 02:16:09;;;;;;;46.83;23.90;;;;;;;-143.54;100.00;59916.91;5093580;28;20417;-82
2023/12/15 02:18:34;;;;;;;46.88;23.33;;;;;;;-143.54;100.00;59916.91;5087841;28;20028;-81
2023/12/15 02:20:59;;;;;;;49.03;22.65;;;;;;;-143.54;100.00;59916.91;5097954;28;20028;-82
2023/12/15 02:23:24;;;;;;;50.42;23.83;;;;;;;-143.54;100.00;59916.91;5101243;28;20028;-82
2023/12/15 02:25:50;;;;;;;53.95;23.52;;;;;;;-143.54;100.00;59916.91;5100795;28;20036;-82
2023/12/15 02:28:15;;;;;;;53.70;23.50;;;;;;;-143.54;100.00;59916.91;5105353;28;20032;-82
2023/12/15 02:30:40;;;;;;;50.13;23.10;;;;;;;-143.54;100.00;59916.91;5095459;28;20066;-82
2023/12/15 02:33:06;;;;;;;50.35;23.60;;;;;;;-143.54;100.00;59916.91;5097878;28;20467;-82
2023/12/15 02:35:31;;;;;;;54.00;24.52;;;;;;;-143.54;100.00;59916.91;5099774;28;20032;-83
2023/12/15 02:37:56;;;;;;;54.58;23.85;;;;;;;-143.54;100.00;59916.91;5095748;28;20024;-82
2023/12/15 02:40:21;;;;;;;53.22;24.08;;;;;;;-143.54;100.00;59916.91;5101135;28;20039;-82
2023/12/15 02:42:47;;;;;;;48.67;23.30;;;;;;;-143.54;100.00;59916.91;5090232;28;20012;-82
2023/12/15 02:45:12;;;;;;;55.55;24.98;;;;;;;-143.54;100.00;59916.91;5095620;28;20047;-82
2023/12/15 02:47:37;;;;;;;53.05;23.33;;;;;;;-143.54;100.00;59916.91;5095724;28;20035;-81
2023/12/15 02:50:03;;;;;;;57.80;24.55;;;;;;;-143.54;100.00;59916.91;5103498;28;20022;-82
2023/12/15 02:52:28;;;;;;;57.42;25.05;;;;;;;-143.54;100.00;59916.91;5093388;28;20025;-82
2023/12/15 02:54:53;;;;;;;58.58;24.75;;;;;;;-143.54;100.00;59916.91;5092032;28;20118;-82
2023/12/15 02:57:19;;;;;;;54.63;24.30;;;;;;;-143.54;100.00;59916.91;5092489;28;20476;-82
2023/12/15 02:59:44;;;;;;;61.47;26.08;;;;;;;-143.54;100.00;59916.91;5099850;28;20031;-81
2023/12/15 03:02:09;;;;;;;67.60;24.90;;;;;;;-143.54;100.00;59916.91;5097220;28;20027;-82
2023/12/15 03:04:34;;;;;;;66.00;26.95;;;;;;;-143.54;100.00;59916.91;5100191;28;20568;-82
2023/12/15 03:07:00;;;;;;;68.70;26.95;;;;;;;-143.54;100.00;59916.91;5095325;28;20043;-81
2023/12/15 03:09:25;;;;;;;77.28;26.42;;;;;;;-143.54;100.00;59916.91;5100412;28;20054;-81
2023/12/15 03:11:50;;;;;;;68.32;26.83;;;;;;;-143.54;100.00;59916.91;5099638;28;20434;-82
2023/12/15 03:14:16;;;;;;;64.35;25.98;;;;;;;-143.54;100.00;59916.91;5095869;28;20451;-82
2023/12/15 03:16:41;;;;;;;74.93;28.35;;;;;;;-143.54;100.00;59916.91;5099617;28;20032;-82
2023/12/15 03:19:07;;;;;;;72.88;26.52;;;;;;;-143.54;100.00;59916.91;5089532;28;20096;-82
2023/12/15 03:21:32;;;;;;;67.43;27.02;;;;;;;-143.54;100.00;59916.91;5097204;28;20036;-82
2023/12/15 03:23:57;;;;;;;74.65;28.33;;;;;;;-143.54;100.00;59916.91;5106939;28;20063;-82
2023/12/15 03:26:23;;;;;;;78.38;28.20;;;;;;;-143.54;100.00;59916.91;5098970;28;20704;-81
2023/12/15 03:28:48;;;;;;;74.30;27.58;;;;;;;-143.54;100.00;59916.91;5101206;28;20459;-82
2023/12/15 03:31:13;;;;;;;74.72;28.67;;;;;;;-143.54;100.00;59916.91;5104100;28;20030;-81
2023/12/15 03:33:38;;;;;;;89.82;29.98;;;;;;;-143.54;100.00;59916.91;5106089;28;20028;-82
2023/12/15 03:36:04;;;;;;;86.28;29.23;;;;;;;-143.54;100.00;59916.91;5101436;28;20034;-82
2023/12/15 03:38:30;;;;;;;82.97;30.13;;;;;;;-143.54;100.00;59916.91;5098401;28;20028;-82
2023/12/15 03:40:56;;;;;;;83.72;30.17;;;;;;;-143.54;100.00;59916.91;5102906;28;20031;-82
2023/12/15 03:43:21;;;;;;;81.88;28.70;;;;;;;-143.54;100.00;59916.91;5102605;28;20078;-82
2023/12/15 03:45:47;;;;;;;88.07;30.50;;;;;;;-143.54;100.00;59916.91;5096080;28;20024;-83
2023/12/15 03:48:12;;;;;;;95.03;29.88;;;;;;;-143.54;100.00;59916.91;5097253;28;20024;-82
2023/12/15 03:50:37;;;;;;;90.38;30.25;;;;;;;-143.54;100.00;59916.91;5107530;28;20080;-82
2023/12/15 03:53:02;;;;;;;86.82;29.55;;;;;;;-143.54;100.00;59916.91;5095999;28;20066;-82
2023/12/15 03:55:28;;;;;;;88.88;31.13;;;;;;;-143.54;100.00;59916.91;5092728;28;20035;-82
2023/12/15 03:57:53;;;;;;;102.43;32.97;;;;;;;-143.54;100.00;59916.91;5101330;28;20415;-82
2023/12/15 04:00:20;;;;;;;97.32;32.35;;;;;;;-143.54;100.00;59916.91;5105191;28;20562;-82
2023/12/15 04:02:46;;;;;;;93.45;31.17;;;;;;;-143.54;100.00;59916.91;5111253;28;20374;-82
2023/12/15 04:05:12;;;;;;;109.47;33.05;;;;;;;-143.54;100.00;59916.91;5106288;28;20126;-82
2023/12/15 04:07:37;;;;;;;104.47;32.63;;;;;;;-143.54;100.00;59916.91;5098162;28;20032;-82
2023/12/15 04:10:03;;;;;;;118.05;32.60;;;;;;;-143.54;100.00;59916.91;5104041;28;20467;-82
2023/12/15 04:12:28;;;;;;;120.07;32.92;;;;;;;-143.54;100.00;59916.91;5106552;28;20471;-82
2023/12/15 04:14:54;;;;;;;104.30;32.95;;;;;;;-143.54;100.00;59916.91;5099003;28;20047;-81
2023/12/15 04:17:19;;;;;;;116.80;34.30;;;;;;;-143.54;100.00;59916.91;5104611;28;20042;-82
2023/12/15 04:19:44;;;;;;;124.28;34.53;;;;;;;-143.54;100.00;59916.91;5110647;28;20027;-81
2023/12/15 04:22:09;;;;;;;131.55;38.15;;;;;;;-143.54;100.00;59916.91;5102225;28;20383;-81
2023/12/15 04:24:35;;;;;;;119.65;36.75;;;;;;;-143.54;100.00;59916.91;5102362;28;20035;-81
2023/12/15 04:27:00;;;;;;;119.88;36.30;;;;;;;-143.54;100.00;59916.91;5097056;28;20028;-82
2023/12/15 04:29:25;;;;;;;141.20;37.83;;;;;;;-143.54;100.00;59916.91;5112861;28;20118;-82
2023/12/15 04:31:51;;;;;;;125.90;37.17;;;;;;;-143.54;100.00;59916.91;5099212;28;20030;-82
2023/12/15 04:34:16;;;;;;;132.70;36.20;;;;;;;-143.54;100.00;59916.91;5101499;28;20028;-82
2023/12/15 04:36:41;;;;;;;140.27;36.00;;;;;;;-143.54;100.00;59916.91;5100674;28;20085;-82
2023/12/15 04:39:07;;;;;;;138.20;39.45;;;;;;;-143.54;100.00;59916.91;5104542;28;20111;-82
2023/12/15 04:41:32;;;;;;;136.95;38.35;;;;;;;-143.54;100.00;59916.91;5101415;28;20517;-81
2023/12/15 04:43:58;;;;;;;137.82;36.70;;;;;;;-143.54;100.00;59916.91;5101119;28;20024;-82
2023/12/15 04:46:24;;;;;;;144.38;40.30;;;;;;;-143.54;100.00;59916.91;5094479;28;20466;-82
2023/12/15 04:48:49;;;;;;;143.95;38.00;;;;;;;-143.54;100.00;59916.91;5094646;28;20031;-82
2023/12/15 04:51:15;;;;;;;149.35;38.95;;;;;;;-143.54;100.00;59916.91;5098405;28;20040;-82
2023/12/15 04:53:40;;;;;;;143.77;36.80;;;;;;;-143.54;100.00;59916.91;5099327;28;20127;-82
2023/12/15 04:56:05;;;;;;;144.75;37.78;;;;;;;-143.54;100.00;59916.91;5100993;28;20135;-82
2023/12/15 04:58:31;;;;;;;150.18;38.83;;;;;;;-143.54;100.00;59916.91;5103881;28;20425;-82
2023/12/15 05:00:56;;;;;;;149.63;41.20;;;;;;;-143.54;100.00;59916.91;5099857;28;20106;-82
2023/12/15 05:03:22;;;;;;;142.18;37.78;;;;;;;-143.54;100.00;59916.91;5102649;28;20051;-82
2023/12/15 05:05:48;;;;;;;142.38;39.08;;;;;;;-143.54;100.00;59916.91;5098930;28;20459;-82
2023/12/15 05:08:13;;;;;;;148.80;37.47;;;;;;;-143.54;100.00;59916.91;5102352;28;20072;-82
2023/12/15 05:10:38;;;;;;;136.98;39.17;;;;;;;-143.54;100.00;59916.91;5105123;28;20811;-82
2023/12/15 05:13:04;;;;;;;143.52;38.20;;;;;;;-143.54;100.00;59916.91;5102934;28;20047;-82
2023/12/15 05:15:29;;;;;;;156.20;41.53;;;;;;;-143.54;100.00;59916.91;5103195;28;20169;-82
2023/12/15 05:17:54;;;;;;;146.98;39.15;;;;;;;-143.54;100.00;59916.91;5101700;28;20123;-82
2023/12/15 05:20:20;;;;;;;148.15;39.08;;;;;;;-143.54;100.00;59916.91;5093788;28;20031;-82
2023/12/15 05:22:45;;;;;;;146.25;39.20;;;;;;;-143.54;100.00;59916.91;5101041;28;20153;-82
2023/12/15 05:25:11;;;;;;;144.63;41.88;;;;;;;-143.54;100.00;59916.91;5102111;28;20032;-82
2023/12/15 05:27:36;;;;;;;140.75;40.40;;;;;;;-143.54;100.00;59916.91;5099738;28;20042;-82
2023/12/15 05:30:02;;;;;;;166.10;43.42;;;;;;;-143.54;100.00;59916.91;5101765;28;20032;-82
2023/12/15 05:32:28;;;;;;;165.75;42.55;;;;;;;-143.54;100.00;59916.91;5092354;28;20017;-81
2023/12/15 05:34:53;;;;;;;155.52;42.08;;;;;;;-143.54;100.00;59916.91;5100964;28;20029;-82
2023/12/15 05:37:18;;;;;;;178.55;44.78;;;;;;;-143.54;100.00;59916.91;5095607;28;20028;-82
2023/12/15 05:39:46;;;;;;;177.80;44.78;;;;;;;-143.54;100.00;59916.91;5097011;28;20016;-82
2023/12/15 05:42:12;;;;;;;165.60;45.60;;;;;;;-143.54;100.00;59916.91;5102258;28;20483;-82
2023/12/15 05:44:39;;;;;;;178.95;44.58;;;;;;;-143.54;100.00;59916.91;5103669;28;20031;-82
2023/12/15 05:47:05;;;;;;;185.05;45.55;;;;;;;-143.54;100.00;59916.91;5093856;28;20337;-82
2023/12/15 05:49:30;;;;;;;191.02;45.80;;;;;;;-143.54;100.00;59916.91;5108508;28;20118;-82
2023/12/15 05:51:55;;;;;;;177.98;44.20;;;;;;;-143.54;100.00;59916.91;5090706;28;20027;-82
2023/12/15 05:54:20;;;;;;;190.10;46.95;;;;;;;-143.54;100.00;59916.91;5101443;28;20101;-82
2023/12/15 05:56:46;;;;;;;180.60;46.83;;;;;;;-143.54;100.00;59916.91;5099544;28;20114;-82
2023/12/15 05:59:11;;;;;;;184.10;46.60;;;;;;;-143.54;100.00;59916.91;5094525;28;20383;-82
2023/12/15 06:01:36;;;;;;;190.70;46.17;;;;;;;-143.54;100.00;59916.91;5101228;28;20028;-82
2023/12/15 06:04:01;;;;;;;174.15;48.28;;;;;;;-143.54;100.00;59916.91;5103735;28;20098;-82
2023/12/15 06:06:27;;;;;;;176.73;46.17;;;;;;;-143.54;100.00;59916.91;5098732;28;20459;-82
2023/12/15 06:08:52;;;;;;;204.27;48.92;;;;;;;-143.54;100.00;59916.91;5104061;28;20024;-82
2023/12/15 06:11:18;;;;;;;183.63;47.20;;;;;;;-143.54;100.00;59916.91;5106876;28;20030;-81
2023/12/15 06:13:43;;;;;;;167.80;46.85;;;;;;;-143.54;100.00;59916.91;5098807;28;20033;-82
2023/12/15 06:16:16;;;;;;;189.15;50.80;;;;;;;-143.54;100.00;59916.91;5099353;28;20020;-82
2023/12/15 06:18:42;;;;;;;191.27;50.03;;;;;;;-143.54;100.00;59916.91;5103737;28;20034;-82
2023/12/15 06:21:07;;;;;;;202.10;50.28;;;;;;;-143.54;100.00;59916.91;5101165;28;20020;-82
2023/12/15 06:23:32;;;;;;;211.30;51.63;;;;;;;-143.54;100.00;59916.91;5097839;28;20569;-82
2023/12/15 06:25:57;;;;;;;206.68;50.58;;;;;;;-143.54;100.00;59916.91;5098979;28;20028;-82
2023/12/15 06:28:23;;;;;;;185.00;49.33;;;;;;;-143.54;100.00;59916.91;5088864;28;20537;-82
2023/12/15 06:30:48;;;;;;;194.40;51.50;;;;;;;-143.54;100.00;59916.91;5109289;28;20032;-82
2023/12/15 06:33:14;;;;;;;198.25;51.28;;;;;;;-143.54;100.00;59916.91;5095881;28;20485;-82
2023/12/15 06:35:39;;;;;;;204.95;51.58;;;;;;;-143.54;100.00;59916.91;5101656;28;20024;-82
2023/12/15 06:38:04;;;;;;;203.10;50.90;;;;;;;-143.54;100.00;59916.91;5101704;28;20026;-83
2023/12/15 06:40:30;;;;;;;203.50;51.20;;;;;;;-143.54;100.00;59916.91;5098581;28;20094;-82
2023/12/15 06:42:55;;;;;;;190.77;48.97;;;;;;;-143.54;100.00;59916.91;5093581;28;20071;-82
2023/12/15 06:45:20;;;;;;;189.85;49.03;;;;;;;-143.54;100.00;59916.91;5084217;28;20032;-82
2023/12/15 06:47:46;;;;;;;210.90;51.25;;;;;;;-143.54;100.00;59916.91;5095811;28;20459;-82
2023/12/15 06:50:11;;;;;;;197.07;52.00;;;;;;;-143.54;100.00;59916.91;5090776;28;20043;-82
2023/12/15 06:52:36;;;;;;;194.35;50.15;;;;;;;-143.54;100.00;59916.91;5095801;28;20024;-82
2023/12/15 06:55:02;;;;;;;202.93;51.33;;;;;;;-143.54;100.00;59916.91;5102770;28;20076;-82
2023/12/15 06:57:28;;;;;;;190.77;49.00;;;;;;;-143.54;100.00;59916.91;5094717;28;20026;-82
2023/12/15 06:59:53;;;;;;;178.65;49.00;;;;;;;-143.54;100.00;59916.91;5084821;28;20107;-82
2023/12/15 07:02:19;;;;;;;201.68;52.10;;;;;;;-143.54;100.00;59916.91;5104594;28;20069;-82
2023/12/15 07:04:44;;;;;;;199.75;50.58;;;;;;;-143.54;100.00;59916.91;5097671;28;20772;-82
2023/12/15 07:07:10;;;;;;;197.32;49.85;;;;;;;-143.54;100.00;59916.91;5100116;28;20027;-83
2023/12/15 07:09:36;;;;;;;198.32;51.63;;;;;;;-143.54;100.00;59916.91;5100464;28;20020;-83
2023/12/15 07:12:02;;;;;;;191.38;50.38;;;;;;;-143.54;100.00;59916.91;5090184;28;20028;-83
2023/12/15 07:14:28;;;;;;;194.15;50.40;;;;;;;-143.54;100.00;59916.91;5104903;28;20034;-83
2023/12/15 07:16:53;;;;;;;183.82;48.25;;;;;;;-143.54;100.00;59916.91;5089192;28;20021;-83
2023/12/15 07:19:18;;;;;;;196.25;49.67;;;;;;;-143.54;100.00;59916.91;5103775;28;20064;-83
2023/12/15 07:21:44;;;;;;;185.63;48.28;;;;;;;-143.54;100.00;59916.91;5096649;28;20036;-83
2023/12/15 07:24:09;;;;;;;199.50;49.80;;;;;;;-143.54;100.00;59916.91;5096214;28;20024;-82
2023/12/15 07:26:34;;;;;;;208.60;49.92;;;;;;;-143.54;100.00;59916.91;5095103;28;20401;-83
2023/12/15 07:28:59;;;;;;;185.20;48.85;;;;;;;-143.54;100.00;59916.91;5094970;28;20111;-81
2023/12/15 07:31:25;;;;;;;203.32;49.95;;;;;;;-143.54;100.00;59916.91;5094157;28;20043;-83
2023/12/15 07:33:50;;;;;;;200.02;49.72;;;;;;;-143.54;100.00;59916.91;5098344;28;20107;-83
2023/12/15 07:36:15;;;;;;;205.00;49.38;;;;;;;-143.54;100.00;59916.91;5092157;28;20036;-82
2023/12/15 07:38:41;;;;;;;187.48;49.33;;;;;;;-143.54;100.00;59916.91;5092204;28;20024;-84
2023/12/15 07:41:06;;;;;;;206.23;50.97;;;;;;;-143.54;100.00;59916.91;5098955;28;20020;-84
2023/12/15 07:43:32;;;;;;;195.73;48.53;;;;;;;-143.54;100.00;59916.91;5101432;28;20031;-84
2023/12/15 07:45:57;;;;;;;193.18;49.40;;;;;;;-143.54;100.00;59916.91;5093209;28;20089;-83
2023/12/15 07:48:22;;;;;;;186.48;50.83;;;;;;;-143.54;100.00;59916.91;5094701;28;20043;-83
2023/12/15 07:50:48;;;;;;;193.07;49.53;;;;;;;-143.54;100.00;59916.91;5094211;28;20035;-83
2023/12/15 07:53:13;;;;;;;187.70;48.38;;;;;;;-143.54;100.00;59916.91;5096107;28;20404;-83
2023/12/15 07:55:38;;;;;;;208.20;49.47;;;;;;;-143.54;100.00;59916.91;5098170;28;20731;-83
2023/12/15 07:58:04;;;;;;;183.18;47.40;;;;;;;-143.54;100.00;59916.91;5092701;28;20032;-83
2023/12/15 08:00:29;;;;;;;194.85;48.08;;;;;;;-143.54;100.00;59916.91;5097465;28;20087;-83
2023/12/15 08:02:54;;;;;;;181.25;50.70;;;;;;;-143.54;100.00;59916.91;5100854;28;20030;-83
2023/12/15 08:05:20;;;;;;;191.80;48.53;;;;;;;-143.54;100.00;59916.91;5095128;28;20456;-83
2023/12/15 08:07:45;;;;;;;207.23;49.83;;;;;;;-143.54;100.00;59916.91;5095497;28;20063;-83
2023/12/15 08:10:10;;;;;;;208.77;49.83;;;;;;;-143.54;100.00;59916.91;5092242;28;20024;-83
2023/12/15 08:12:36;;;;;;;199.45;50.65;;;;;;;-143.54;100.00;59916.91;5098067;28;20028;-83
2023/12/15 08:15:01;;;;;;;176.60;48.67;;;;;;;-143.54;100.00;59916.91;5095860;28;20023;-83
2023/12/15 08:17:26;;;;;;;190.10;48.58;;;;;;;-143.54;100.00;59916.91;5092041;28;20135;-83
2023/12/15 08:19:52;;;;;;;194.90;49.83;;;;;;;-143.54;100.00;59916.91;5094021;28;20023;-84
2023/12/15 08:22:17;;;;;;;177.93;47.85;;;;;;;-143.54;100.00;59916.91;5100787;28;20016;-83
2023/12/15 08:24:43;;;;;;;177.20;48.20;;;;;;;-143.54;100.00;59916.91;5094301;28;20069;-83
2023/12/15 08:27:08;;;;;;;182.75;48.08;;;;;;;-143.54;100.00;59916.91;5095538;28;20110;-83
2023/12/15 08:29:34;;;;;;;183.82;49.13;;;;;;;-143.54;100.00;59916.91;5097831;28;20101;-83
2023/12/15 08:31:59;;;;;;;183.13;46.35;;;;;;;-143.54;100.00;59916.91;5101721;28;20035;-83
2023/12/15 08:34:26;;;;;;;175.57;47.75;;;;;;;-143.54;100.00;59916.91;5097023;28;20098;-83
2023/12/15 08:36:51;;;;;;;171.10;46.25;;;;;;;-143.54;100.00;59916.91;5107291;28;20066;-84
2023/12/15 08:39:16;;;;;;;161.25;44.97;;;;;;;-143.54;100.00;59916.91;5096434;28;20476;-82
2023/12/15 08:41:42;;;;;;;165.27;46.30;;;;;;;-143.54;100.00;59916.91;5098289;28;20024;-82
2023/12/15 08:44:07;;;;;;;163.63;45.92;;;;;;;-143.54;100.00;59916.91;5093989;28;20020;-83
2023/12/15 08:46:33;;;;;;;164.73;45.80;;;;;;;-143.54;100.00;59916.91;5104387;28;20031;-83
2023/12/15 08:48:58;;;;;;;159.60;45.33;;;;;;;-143.54;100.00;59916.91;5096325;28;20463;-83
2023/12/15 08:51:23;;;;;;;162.32;45.55;;;;;;;-143.54;100.00;59916.91;5099616;28;20036;-83
2023/12/15 08:53:48;;;;;;;160.65;45.20;;;;;;;-143.54;100.00;59916.91;5098293;28;20035;-84
2023/12/15 08:56:14;;;;;;;156.35;45.25;;;;;;;-143.54;100.00;59916.91;5100522;28;20103;-83
2023/12/15 08:58:39;;;;;;;155.27;44.72;;;;;;;-143.54;100.00;59916.91;5098948;28;20463;-83
2023/12/15 09:01:04;;;;;;;154.77;43.83;;;;;;;-143.54;100.00;59916.91;5099715;28;20027;-83
2023/12/15 09:03:30;;;;;;;158.38;42.53;;;;;;;-143.54;100.00;59916.91;5097376;28;20061;-80
2023/12/15 09:05:55;;;;;;;156.85;44.53;;;;;;;-143.54;100.00;59916.91;5102096;28;20027;-83
2023/12/15 09:08:20;;;;;;;147.00;42.50;;;;;;;-143.54;100.00;59916.91;5102917;28;20036;-83
2023/12/15 09:10:50;;;;;;;140.55;42.40;;;;;;;-143.54;100.00;59916.91;5094547;28;20031;-83
2023/12/15 09:13:16;;;;;;;146.77;44.05;;;;;;;-143.54;100.00;59916.91;5099818;28;20717;-83
2023/12/15 09:15:41;;;;;;;152.80;42.63;;;;;;;-143.54;100.00;59916.91;5100049;28;20035;-83
2023/12/15 09:18:07;;;;;;;147.90;43.03;;;;;;;-143.54;100.00;59916.91;5096447;28;20107;-83
2023/12/15 09:20:33;;;;;;;146.02;42.17;;;;;;;-143.54;100.00;59916.91;5094856;28;20020;-83
2023/12/15 09:22:58;;;;;;;140.82;42.72;;;;;;;-143.54;100.00;59916.91;5098888;28;20097;-83
2023/12/15 09:25:24;;;;;;;139.13;41.38;;;;;;;-143.54;100.00;59916.91;5096006;28;20112;-83
2023/12/15 09:27:49;;;;;;;141.23;42.20;;;;;;;-143.54;100.00;59916.91;5099932;28;20020;-83
2023/12/15 09:30:15;;;;;;;130.00;40.42;;;;;;;-143.54;100.00;59916.91;5102774;28;20032;-83
2023/12/15 09:32:40;;;;;;;135.93;42.08;;;;;;;-143.54;100.00;59916.91;5099990;28;20111;-83
2023/12/15 09:35:06;;;;;;;136.38;40.55;;;;;;;-143.54;100.00;59916.91;5094808;28;20031;-83
2023/12/15 09:37:31;;;;;;;124.25;40.60;;;;;;;-143.54;100.00;59916.91;5098817;28;20024;-83
2023/12/15 09:39:57;;;;;;;125.00;41.15;;;;;;;-143.54;100.00;59916.91;5099826;28;20028;-83
2023/12/15 09:42:23;;;;;;;123.93;41.03;;;;;;;-143.54;100.00;59916.91;5102387;28;20069;-83
2023/12/15 09:44:49;;;;;;;115.22;38.60;;;;;;;-143.54;100.00;59916.91;5101847;28;20020;-83
2023/12/15 09:47:15;;;;;;;119.03;38.88;;;;;;;-143.54;100.00;59916.91;5099206;28;20047;-83
2023/12/15 09:49:43;;;;;;;108.47;37.50;;;;;;;-143.54;100.00;59916.91;5103046;28;20027;-83
2023/12/15 09:52:11;;;;;;;106.68;37.60;;;;;;;-143.54;100.00;59916.91;5105969;28;20020;-81
2023/12/15 09:54:37;;;;;;;107.95;36.75;;;;;;;-143.54;100.00;59916.91;5098481;28;20032;-82
2023/12/15 09:57:03;;;;;;;95.75;35.30;;;;;;;-143.54;100.00;59916.91;5101164;28;20088;-82
2023/12/15 09:59:28;;;;;;;105.10;36.85;;;;;;;-143.54;100.00;59916.91;5102909;28;20020;-82
2023/12/15 10:01:53;;;;;;;97.82;35.25;;;;;;;-143.54;100.00;59916.91;5103926;28;20031;-82
2023/12/15 10:04:18;;;;;;;95.05;35.60;;;;;;;-143.54;100.00;59916.91;5103600;28;20039;-82
2023/12/15 10:06:46;;;;;;;102.18;36.90;;;;;;;-143.54;100.00;59916.91;5098964;28;20584;-82
2023/12/15 10:09:13;;;;;;;97.60;35.40;;;;;;;-143.54;100.00;59916.91;5096545;28;20047;-82
2023/12/15 10:11:43;;;;;;;89.28;34.28;;;;;;;-143.54;100.00;59916.91;5100769;28;20039;-82
2023/12/15 10:14:08;;;;;;;94.25;34.08;;;;;;;-143.54;100.00;59916.91;5108688;28;20020;-81
2023/12/15 10:16:35;;;;;;;95.70;34.67;;;;;;;-143.54;100.00;59916.91;5098521;28;20032;-82
2023/12/15 10:19:05;;;;;;;83.38;32.67;;;;;;;-143.54;100.00;59916.91;5104777;28;20107;-83
2023/12/15 10:21:32;;;;;;;82.97;31.95;;;;;;;-143.54;100.00;59916.91;5100068;28;20035;-83
2023/12/15 10:23:58;;;;;;;84.85;31.27;;;;;;;-143.54;100.00;59916.91;5102303;28;20103;-83
2023/12/15 10:26:27;;;;;;;87.93;34.70;;;;;;;-143.54;100.00;59916.91;5098665;28;20028;-83
2023/12/15 10:28:55;;;;;;;94.65;35.28;;;;;;;-143.54;100.00;59916.91;5107634;28;20039;-83
2023/12/15 10:31:24;;;;;;;84.40;31.92;;;;;;;-143.54;100.00;59916.91;5102381;28;20024;-82
2023/12/15 10:33:49;;;;;;;94.45;34.47;;;;;;;-143.54;100.00;59916.91;5107886;28;20019;-83
2023/12/15 10:36:15;;;;;;;85.38;33.00;;;;;;;-143.54;100.00;59916.91;5102103;28;20118;-83
2023/12/15 10:38:41;;;;;;;77.43;32.95;;;;;;;-143.54;100.00;59916.91;5097813;28;20035;-83
2023/12/15 10:41:07;;;;;;;75.72;32.47;;;;;;;-143.54;100.00;59916.91;5091507;28;20027;-83